createdAt,value
2018-02-22T00:02:09.072Z,44.38
2018-02-22T00:04:36.564Z,43.10
2018-02-22T00:07:04.825Z,46.70
2018-02-22T00:09:33.062Z,42.97
2018-02-22T00:12:00.541Z,46.53
2018-02-22T00:14:28.024Z,45.67
2018-02-22T00:16:55.502Z,46.63
2018-02-22T00:19:23.754Z,46.13
2018-02-22T00:21:52.737Z,42.42
2018-02-22T00:24:20.221Z,48.67
2018-02-22T00:26:48.470Z,46.10
2018-02-22T00:29:15.956Z,44.88
2018-02-22T00:31:44.202Z,47.28
2018-02-22T00:34:11.684Z,52.72
2018-02-22T00:36:39.158Z,49.20
2018-02-22T00:39:07.405Z,47.08
2018-02-22T00:41:34.881Z,44.10
2018-02-22T00:44:03.158Z,42.97
2018-02-22T00:46:31.437Z,40.92
2018-02-22T00:48:59.691Z,46.08
2018-02-22T00:51:27.929Z,41.08
2018-02-22T00:53:55.421Z,47.50
2018-02-22T00:56:22.905Z,45.58
2018-02-22T00:58:51.145Z,40.78
2018-02-22T01:01:18.632Z,49.03
2018-02-22T01:03:46.114Z,40.72
2018-02-22T01:06:14.357Z,43.22
2018-02-22T01:08:41.820Z,42.50
2018-02-22T01:11:10.821Z,38.75
2018-02-22T01:13:38.300Z,37.25
2018-02-22T01:16:06.565Z,46.95
2018-02-22T01:18:34.809Z,47.53
2018-02-22T01:21:02.284Z,40.20
2018-02-22T01:23:30.528Z,42.50
2018-02-22T01:25:58.013Z,44.17
2018-02-22T01:28:25.484Z,42.45
2018-02-22T01:30:52.977Z,43.55
2018-02-22T01:33:20.444Z,42.17
2018-02-22T01:35:47.921Z,42.80
2018-02-22T01:38:15.408Z,43.42
2018-02-22T01:40:43.137Z,44.33
2018-02-22T01:43:10.617Z,40.08
2018-02-22T01:45:38.106Z,41.28
2018-02-22T01:48:06.348Z,43.33
2018-02-22T01:50:33.825Z,44.72
2018-02-22T01:53:01.324Z,41.72
2018-02-22T01:55:28.801Z,44.38
2018-02-22T01:57:57.094Z,39.10
2018-02-22T02:00:24.569Z,38.72
2018-02-22T02:02:52.044Z,38.40
2018-02-22T02:05:21.026Z,45.83
2018-02-22T02:07:48.509Z,43.47
2018-02-22T02:10:16.753Z,43.90
2018-02-22T02:12:44.228Z,44.28
2018-02-22T02:15:12.469Z,47.00
2018-02-22T02:17:39.980Z,47.33
2018-02-22T02:20:07.454Z,45.88
2018-02-22T02:22:34.923Z,45.00
2018-02-22T02:25:02.414Z,42.28
2018-02-22T02:27:29.886Z,42.25
2018-02-22T02:29:57.369Z,60.67
2018-02-22T02:32:25.609Z,42.55
2018-02-22T02:34:53.089Z,42.25
2018-02-22T02:37:20.562Z,44.05
2018-02-22T02:39:48.816Z,41.35
2018-02-22T02:42:16.293Z,38.13
2018-02-22T02:44:44.546Z,39.30
2018-02-22T02:47:13.524Z,45.47
2018-02-22T02:49:41.013Z,47.40
2018-02-22T02:52:08.488Z,40.22
2018-02-22T02:54:36.752Z,46.85
2018-02-22T02:57:04.234Z,42.22
2018-02-22T02:59:31.707Z,40.75
2018-02-22T03:01:59.194Z,42.42
2018-02-22T03:04:26.936Z,44.55
2018-02-22T03:06:54.417Z,45.28
2018-02-22T03:09:21.889Z,46.47
2018-02-22T03:11:49.369Z,41.65
2018-02-22T03:14:16.837Z,40.15
2018-02-22T03:16:45.085Z,44.55
2018-02-22T03:19:12.557Z,41.37
2018-02-22T03:21:40.038Z,38.78
2018-02-22T03:24:07.516Z,39.75
2018-02-22T03:26:34.989Z,41.60
2018-02-22T03:29:02.460Z,39.22
2018-02-22T03:31:29.945Z,44.53
2018-02-22T03:33:57.416Z,43.05
2018-02-22T03:36:25.665Z,49.55
2018-02-22T03:38:53.140Z,37.25
2018-02-22T03:41:20.621Z,44.92
2018-02-22T03:43:48.869Z,42.55
2018-02-22T03:46:17.849Z,42.42
2018-02-22T03:48:45.337Z,39.33
2018-02-22T03:51:13.589Z,45.15
2018-02-22T03:53:41.068Z,41.25
2018-02-22T03:56:08.544Z,42.42
2018-02-22T03:58:36.788Z,41.92
2018-02-22T04:01:04.252Z,40.22
2018-02-22T04:03:31.736Z,38.65
2018-02-22T04:05:59.976Z,41.47
2018-02-22T04:08:27.456Z,39.20
2018-02-22T04:10:55.698Z,42.70
2018-02-22T04:13:23.185Z,36.53
2018-02-22T04:15:50.657Z,41.45
2018-02-22T04:18:18.921Z,39.33
2018-02-22T04:20:47.157Z,35.88
2018-02-22T04:23:14.640Z,40.55
2018-02-22T04:25:42.150Z,41.05
2018-02-22T04:28:09.620Z,41.05
2018-02-22T04:30:37.100Z,38.88
2018-02-22T04:33:04.574Z,34.92
2018-02-22T04:35:32.062Z,35.40
2018-02-22T04:38:00.301Z,33.63
2018-02-22T04:40:27.776Z,37.65
2018-02-22T04:42:55.252Z,33.75
2018-02-22T04:45:23.502Z,34.97
2018-02-22T04:47:50.975Z,31.92
2018-02-22T04:50:18.472Z,38.00
2018-02-22T04:52:45.956Z,36.15
2018-02-22T04:55:13.438Z,27.27
2018-02-22T04:57:40.916Z,36.53
2018-02-22T05:00:09.163Z,34.42
2018-02-22T05:02:36.636Z,34.67
2018-02-22T05:05:04.881Z,36.33
2018-02-22T05:07:32.357Z,33.13
2018-02-22T05:09:59.824Z,36.58
2018-02-22T05:12:27.307Z,34.40
2018-02-22T05:14:55.824Z,31.25
2018-02-22T05:17:23.305Z,35.42
2018-02-22T05:19:50.788Z,32.72
2018-02-22T05:22:18.272Z,32.33
2018-02-22T05:24:46.508Z,29.25
2018-02-22T05:27:13.996Z,35.67
2018-02-22T05:29:42.237Z,34.13
2018-02-22T05:32:09.711Z,28.27
2018-02-22T05:34:37.187Z,33.75
2018-02-22T05:37:05.433Z,28.95
2018-02-22T05:39:32.913Z,30.83
2018-02-22T05:42:00.408Z,32.67
2018-02-22T05:44:27.885Z,33.67
2018-02-22T05:46:55.358Z,36.03
2018-02-22T05:49:22.851Z,34.30
2018-02-22T05:51:51.092Z,28.77
2018-02-22T05:54:18.577Z,30.80
2018-02-22T05:56:46.048Z,33.47
2018-02-22T05:59:16.848Z,30.10
2018-02-22T06:01:44.360Z,31.50
2018-02-22T06:04:11.842Z,33.10
2018-02-22T06:06:39.322Z,31.50
2018-02-22T06:09:06.797Z,29.27
2018-02-22T06:11:34.377Z,32.03
2018-02-22T06:14:01.849Z,34.75
2018-02-22T06:16:37.301Z,35.17
2018-02-22T06:19:04.769Z,34.40
2018-02-22T06:21:32.253Z,29.95
2018-02-22T06:23:59.724Z,37.90
2018-02-22T06:26:27.201Z,34.53
2018-02-22T06:28:54.672Z,38.65
2018-02-22T06:31:22.158Z,33.42
2018-02-22T06:33:49.633Z,35.50
2018-02-22T06:36:17.120Z,35.42
2018-02-22T06:38:44.588Z,36.35
2018-02-22T06:41:12.063Z,33.17
2018-02-22T06:43:40.308Z,31.37
2018-02-22T06:46:07.805Z,37.42
2018-02-22T06:48:36.054Z,36.08
2018-02-22T06:51:03.528Z,38.45
2018-02-22T06:53:31.000Z,36.55
2018-02-22T06:55:59.246Z,40.28
2018-02-22T06:58:26.716Z,33.88
2018-02-22T07:00:54.973Z,34.67
2018-02-22T07:03:22.448Z,35.38
2018-02-22T07:05:49.925Z,37.00
2018-02-22T07:08:18.173Z,36.17
2018-02-22T07:10:45.644Z,37.15
2018-02-22T07:13:13.130Z,39.08
2018-02-22T07:15:40.606Z,39.55
2018-02-22T07:18:08.088Z,36.15
2018-02-22T07:20:35.563Z,31.58
2018-02-22T07:23:03.058Z,35.25
2018-02-22T07:25:31.319Z,29.27
2018-02-22T07:27:58.797Z,32.53
2018-02-22T07:30:27.045Z,28.62
2018-02-22T07:32:54.516Z,31.15
2018-02-22T07:35:22.005Z,30.20
2018-02-22T07:37:49.477Z,27.77
2018-02-22T07:40:16.969Z,26.85
2018-02-22T07:42:44.461Z,22.87
2018-02-22T07:45:12.713Z,24.08
2018-02-22T07:47:40.189Z,22.50
2018-02-22T07:50:08.433Z,24.17
2018-02-22T07:52:35.908Z,24.30
2018-02-22T07:55:03.397Z,21.03
2018-02-22T07:57:30.876Z,25.53
2018-02-22T07:59:58.370Z,24.67
2018-02-22T08:02:25.841Z,25.03
2018-02-22T08:04:53.305Z,22.80
2018-02-22T08:07:20.785Z,24.27
2018-02-22T08:09:49.025Z,24.10
2018-02-22T08:12:16.501Z,22.87
2018-02-22T08:14:43.976Z,25.03
2018-02-22T08:17:12.221Z,20.90
2018-02-22T08:19:39.684Z,22.67
2018-02-22T08:22:07.170Z,27.87
2018-02-22T08:24:35.409Z,22.33
2018-02-22T08:27:02.894Z,22.77
2018-02-22T08:29:30.357Z,21.03
2018-02-22T08:31:58.605Z,20.27
2018-02-22T08:34:26.078Z,22.57
2018-02-22T08:36:53.554Z,22.33
2018-02-22T08:39:21.792Z,20.47
2018-02-22T08:41:49.265Z,22.27
2018-02-22T08:44:16.737Z,21.93
2018-02-22T08:46:45.262Z,20.40
2018-02-22T08:49:12.737Z,19.20
2018-02-22T08:51:40.209Z,20.00
2018-02-22T08:54:07.684Z,19.93
2018-02-22T08:56:35.158Z,20.53
2018-02-22T08:59:03.396Z,22.70
2018-02-22T09:01:30.860Z,19.67
2018-02-22T09:03:58.354Z,19.80
2018-02-22T09:06:26.597Z,18.47
2018-02-22T09:08:54.068Z,17.47
2018-02-22T09:11:21.784Z,17.03
2018-02-22T09:13:49.257Z,23.47
2018-02-22T09:16:16.738Z,22.47
2018-02-22T09:18:44.200Z,20.73
2018-02-22T09:21:12.453Z,17.70
2018-02-22T09:23:39.920Z,19.23
2018-02-22T09:26:07.388Z,20.47
2018-02-22T09:28:34.862Z,18.67
2018-02-22T09:31:02.349Z,16.20
2018-02-22T09:33:29.822Z,20.73
2018-02-22T09:35:57.293Z,17.13
2018-02-22T09:38:24.773Z,20.67
2018-02-22T09:40:52.249Z,19.47
2018-02-22T09:43:20.493Z,18.27
2018-02-22T09:45:47.969Z,18.70
2018-02-22T09:48:15.440Z,20.87
2018-02-22T09:50:42.908Z,16.70
2018-02-22T09:53:10.385Z,18.80
2018-02-22T09:55:37.866Z,19.97
2018-02-22T09:58:05.342Z,19.23
2018-02-22T10:00:32.813Z,18.57
2018-02-22T10:03:00.273Z,16.97
2018-02-22T10:05:27.749Z,17.43
2018-02-22T10:07:55.217Z,16.67
2018-02-22T10:10:23.460Z,16.03
2018-02-22T10:12:50.936Z,18.57
2018-02-22T10:15:18.408Z,20.40
2018-02-22T10:17:45.877Z,17.37
2018-02-22T10:20:13.365Z,18.97
2018-02-22T10:22:40.829Z,22.00
2018-02-22T10:25:08.304Z,22.80
2018-02-22T10:27:35.782Z,16.97
2018-02-22T10:30:03.249Z,15.53
2018-02-22T10:32:30.713Z,17.63
2018-02-22T10:34:58.210Z,17.77
2018-02-22T10:37:25.677Z,21.23
2018-02-22T10:39:53.166Z,16.73
2018-02-22T10:42:20.645Z,19.23
2018-02-22T10:44:48.156Z,18.33
2018-02-22T10:47:16.382Z,22.23
2018-02-22T10:49:43.940Z,25.23
2018-02-22T10:52:11.416Z,23.37
2018-02-22T10:54:39.655Z,20.43
2018-02-22T10:57:07.128Z,19.60
2018-02-22T10:59:34.598Z,24.93
2018-02-22T11:02:08.476Z,24.83
2018-02-22T11:04:35.954Z,22.73
2018-02-22T11:07:03.425Z,20.67
2018-02-22T11:09:31.666Z,23.47
2018-02-22T11:11:59.146Z,21.53
2018-02-22T11:14:26.609Z,22.73
2018-02-22T11:16:54.084Z,18.83
2018-02-22T11:19:22.313Z,19.63
2018-02-22T11:21:49.792Z,22.70
2018-02-22T11:24:17.267Z,23.03
2018-02-22T11:26:45.508Z,22.67
2018-02-22T11:29:12.973Z,23.57
2018-02-22T11:31:40.433Z,22.43
2018-02-22T11:34:07.953Z,20.50
2018-02-22T11:36:35.430Z,19.63
2018-02-22T11:39:02.905Z,20.60
2018-02-22T11:41:30.377Z,22.87
2018-02-22T11:43:57.856Z,19.03
2018-02-22T11:46:26.106Z,26.20
2018-02-22T11:48:53.583Z,22.33
2018-02-22T11:51:21.052Z,20.90
2018-02-22T11:53:49.305Z,21.60
2018-02-22T11:56:20.709Z,20.00
2018-02-22T11:58:48.185Z,18.93
2018-02-22T12:01:15.701Z,21.17
2018-02-22T12:03:43.941Z,21.77
2018-02-22T12:06:11.429Z,22.60
2018-02-22T12:08:39.667Z,20.70
2018-02-22T12:11:07.176Z,21.93
2018-02-22T12:13:35.400Z,18.33
2018-02-22T12:16:02.879Z,20.07
2018-02-22T12:18:30.349Z,21.67
2018-02-22T12:20:57.826Z,22.50
2018-02-22T12:23:25.306Z,20.07
2018-02-22T12:25:52.776Z,20.73
2018-02-22T12:28:20.249Z,20.13
2018-02-22T12:30:47.722Z,21.47
2018-02-22T12:33:15.972Z,21.33
2018-02-22T12:35:43.441Z,18.70
2018-02-22T12:38:10.916Z,19.57
2018-02-22T12:40:38.393Z,24.07
2018-02-22T12:43:05.917Z,22.07
2018-02-22T12:45:33.390Z,21.83
2018-02-22T12:48:02.381Z,21.33
2018-02-22T12:50:29.855Z,21.80
2018-02-22T12:52:57.334Z,20.20
2018-02-22T12:55:25.569Z,20.03
2018-02-22T12:57:53.060Z,21.27
2018-02-22T13:00:21.304Z,21.73
2018-02-22T13:02:48.768Z,19.50
2018-02-22T13:05:16.252Z,23.07
2018-02-22T13:07:44.484Z,21.43
2018-02-22T13:10:11.964Z,21.07
2018-02-22T13:12:39.433Z,18.83
2018-02-22T13:15:06.914Z,19.97
2018-02-22T13:17:35.156Z,21.73
2018-02-22T13:20:02.634Z,18.83
2018-02-22T13:22:30.110Z,17.47
2018-02-22T13:24:57.617Z,19.23
2018-02-22T13:27:25.089Z,20.83
2018-02-22T13:29:52.588Z,21.77
2018-02-22T13:32:20.057Z,16.27
2018-02-22T13:34:47.528Z,20.30
2018-02-22T13:40:20.838Z,20.17
2018-02-22T13:42:48.349Z,20.00
2018-02-22T13:45:27.772Z,20.43
2018-02-22T13:47:55.322Z,18.50
2018-02-22T13:50:34.830Z,17.17
2018-02-22T13:53:02.312Z,17.80
2018-02-22T13:55:29.824Z,18.20
2018-02-22T13:57:58.081Z,15.27
2018-02-22T14:00:38.073Z,18.63
2018-02-22T14:03:05.562Z,13.93
2018-02-22T14:05:33.074Z,19.87
2018-02-22T14:08:00.564Z,17.23
2018-02-22T14:10:28.038Z,18.77
2018-02-22T14:12:55.521Z,15.30
2018-02-22T14:15:22.993Z,15.97
2018-02-22T14:17:51.242Z,19.13
2018-02-22T14:20:18.716Z,17.07
2018-02-22T14:22:46.200Z,15.53
2018-02-22T14:25:14.440Z,13.20
2018-02-22T14:27:41.930Z,12.37
2018-02-22T14:30:10.169Z,17.93
2018-02-22T14:32:37.682Z,17.13
2018-02-22T14:35:05.158Z,15.33
2018-02-22T14:37:32.634Z,14.67
2018-02-22T14:40:00.109Z,15.67
2018-02-22T14:42:27.577Z,16.23
2018-02-22T14:44:55.057Z,14.30
2018-02-22T14:47:23.292Z,16.40
2018-02-22T14:49:50.769Z,17.50
2018-02-22T14:52:18.250Z,17.00
2018-02-22T14:54:46.501Z,15.37
2018-02-22T14:57:13.968Z,16.97
2018-02-22T14:59:41.478Z,17.00
2018-02-22T15:02:08.973Z,16.47
2018-02-22T15:04:36.457Z,22.83
2018-02-22T15:07:04.698Z,13.23
2018-02-22T15:09:32.186Z,16.03
2018-02-22T15:12:00.425Z,15.33
2018-02-22T15:14:27.925Z,17.23
2018-02-22T15:16:55.391Z,18.20
2018-02-22T15:19:23.637Z,15.97
2018-02-22T15:21:51.117Z,13.80
2018-02-22T15:24:19.352Z,18.17
2018-02-22T15:26:50.281Z,15.87
2018-02-22T15:29:17.748Z,19.47
2018-02-22T15:31:45.233Z,16.93
2018-02-22T15:34:12.709Z,18.40
2018-02-22T15:36:40.985Z,19.40
2018-02-22T15:39:09.235Z,20.20
2018-02-22T15:41:36.717Z,18.90
2018-02-22T15:44:04.957Z,18.53
2018-02-22T15:46:32.433Z,20.23
2018-02-22T15:48:59.905Z,16.53
2018-02-22T15:51:27.397Z,17.00
2018-02-22T15:53:54.885Z,17.83
2018-02-22T15:56:22.365Z,16.23
2018-02-22T15:58:49.844Z,15.37
2018-02-22T16:01:18.085Z,16.20
2018-02-22T16:03:45.560Z,16.50
2018-02-22T16:06:13.037Z,18.00
2018-02-22T16:08:41.286Z,19.70
2018-02-22T16:11:08.765Z,18.00
2018-02-22T16:13:36.245Z,21.73
2018-02-22T16:16:04.040Z,19.67
2018-02-22T16:18:31.528Z,19.87
2018-02-22T16:20:59.013Z,18.17
2018-02-22T16:23:27.277Z,20.67
2018-02-22T16:25:54.753Z,21.03
2018-02-22T16:28:23.013Z,18.77
2018-02-22T16:30:50.505Z,22.23
2018-02-22T16:33:17.986Z,21.67
2018-02-22T16:35:45.481Z,17.27
2018-02-22T16:38:12.962Z,18.67
2018-02-22T16:40:41.232Z,23.12
2018-02-22T16:43:09.481Z,20.60
2018-02-22T16:45:36.980Z,23.73
2018-02-22T16:48:04.469Z,24.37
2018-02-22T16:50:31.957Z,27.30
2018-02-22T16:52:59.433Z,24.57
2018-02-22T16:55:26.918Z,23.97
2018-02-22T16:57:55.166Z,24.87
2018-02-22T17:00:22.650Z,22.92
2018-02-22T17:02:50.908Z,23.33
2018-02-22T17:05:18.404Z,23.47
2018-02-22T17:07:45.890Z,24.50
2018-02-22T17:10:13.369Z,25.67
2018-02-22T17:12:40.858Z,24.20
2018-02-22T17:15:09.102Z,26.55
2018-02-22T17:17:45.413Z,32.20
2018-02-22T17:20:12.905Z,23.75
2018-02-22T17:22:40.397Z,30.10
2018-02-22T17:25:08.656Z,32.03
2018-02-22T17:27:41.804Z,35.90
2018-02-22T17:30:15.032Z,32.85
2018-02-22T17:32:42.518Z,29.10
2018-02-22T17:38:10.573Z,35.60
2018-02-22T17:40:39.897Z,33.25
2018-02-22T17:43:07.641Z,32.00
2018-02-22T17:45:35.134Z,36.55
2018-02-22T17:48:02.638Z,35.13
2018-02-22T17:50:30.120Z,31.73
2018-02-22T17:52:57.624Z,34.00
2018-02-22T17:55:25.872Z,38.80
2018-02-22T17:57:53.364Z,40.80
2018-02-22T18:00:21.617Z,49.65
2018-02-22T18:02:49.117Z,32.20
2018-02-22T18:05:16.610Z,32.47
2018-02-22T18:07:44.110Z,30.27
2018-02-22T18:10:12.377Z,33.10
2018-02-22T18:12:39.867Z,34.65
2018-02-22T18:15:07.368Z,31.60
2018-02-22T18:17:34.853Z,28.90
2018-02-22T18:20:02.363Z,32.60
2018-02-22T18:22:29.849Z,31.95
2018-02-22T18:24:57.353Z,35.28
2018-02-22T18:27:24.833Z,30.73
2018-02-22T18:29:52.329Z,36.33
2018-02-22T18:32:19.824Z,36.05
2018-02-22T18:34:48.100Z,34.83
2018-02-22T18:37:21.189Z,33.30
2018-02-22T18:39:49.464Z,28.90
2018-02-22T18:42:20.585Z,30.60
2018-02-22T18:44:53.680Z,31.12
2018-02-22T18:47:21.177Z,30.77
2018-02-22T18:49:48.656Z,33.08
2018-02-22T18:52:16.153Z,29.63
2018-02-22T18:54:43.649Z,24.05
2018-02-22T18:57:11.148Z,29.40
2018-02-22T18:59:38.632Z,34.10
2018-02-22T19:02:06.368Z,29.52
2018-02-22T19:04:33.853Z,29.95
2018-02-22T19:07:01.341Z,28.58
2018-02-22T19:09:28.833Z,25.12
2018-02-22T19:11:56.328Z,27.23
2018-02-22T19:14:23.812Z,36.35
2018-02-22T19:16:52.088Z,27.65
2018-02-22T19:19:20.342Z,28.77
2018-02-22T19:21:49.356Z,28.10
2018-02-22T19:24:17.612Z,27.98
2018-02-22T19:26:45.888Z,28.80
2018-02-22T19:29:13.372Z,25.55
2018-02-22T19:31:41.630Z,24.02
2018-02-22T19:34:09.125Z,25.55
2018-02-22T19:36:50.565Z,29.35
2018-02-22T19:39:18.061Z,27.30
2018-02-22T19:41:45.551Z,24.27
2018-02-22T19:44:13.049Z,28.62
2018-02-22T19:46:40.534Z,29.90
2018-02-22T19:49:08.041Z,24.10
2018-02-22T19:51:35.520Z,33.22
2018-02-22T19:54:03.020Z,24.37
2018-02-22T19:56:30.500Z,22.15
2018-02-22T19:58:57.991Z,26.15
2018-02-22T20:01:25.469Z,25.37
2018-02-22T20:03:53.745Z,19.98
2018-02-22T20:06:22.004Z,20.15
2018-02-22T20:08:50.692Z,19.92
2018-02-22T20:11:18.257Z,22.13
2018-02-22T20:13:45.881Z,19.83
2018-02-22T20:16:14.196Z,24.65
2018-02-22T20:18:42.444Z,20.77
2018-02-22T20:21:09.943Z,20.95
2018-02-22T20:23:37.460Z,17.95
2018-02-22T20:26:05.098Z,21.23
2018-02-22T20:28:32.911Z,21.90
2018-02-22T20:31:04.429Z,18.37
2018-02-22T20:33:32.301Z,18.58
2018-02-22T20:36:02.837Z,20.15
2018-02-22T20:38:30.985Z,21.17
2018-02-22T20:40:59.328Z,19.95
2018-02-22T20:43:26.820Z,19.23
2018-02-22T20:45:54.308Z,20.67
2018-02-22T20:48:21.805Z,20.23
2018-02-22T20:50:49.289Z,19.23
2018-02-22T20:53:19.565Z,19.35
2018-02-22T20:55:47.056Z,21.92
2018-02-22T20:58:15.312Z,16.15
2018-02-22T21:00:42.787Z,18.25
2018-02-22T21:03:11.088Z,21.45
2018-02-22T21:05:39.326Z,19.25
2018-02-22T21:08:07.576Z,18.58
2018-02-22T21:10:35.056Z,15.98
2018-02-22T21:13:02.550Z,18.12
2018-02-22T21:15:30.790Z,17.27
2018-02-22T21:17:58.293Z,18.67
2018-02-22T21:20:25.779Z,17.30
2018-02-22T21:22:53.277Z,16.73
2018-02-22T21:25:20.763Z,18.95
2018-02-22T21:27:48.258Z,14.75
2018-02-22T21:30:15.741Z,16.65
2018-02-22T21:32:43.265Z,15.98
2018-02-22T21:35:10.758Z,17.48
2018-02-22T21:37:38.245Z,16.80
2018-02-22T21:40:06.504Z,16.17
2018-02-22T21:42:33.980Z,17.42
2018-02-22T21:45:02.232Z,18.77
2018-02-22T21:47:29.716Z,14.43
2018-02-22T21:49:57.965Z,17.12
2018-02-22T21:52:25.486Z,15.30
2018-02-22T21:54:52.965Z,16.00
2018-02-22T21:57:20.442Z,15.48
2018-02-22T21:59:47.936Z,14.40
2018-02-22T22:02:16.202Z,14.95
2018-02-22T22:04:44.469Z,16.60
2018-02-22T22:07:11.957Z,16.27
2018-02-22T22:09:39.730Z,13.52
2018-02-22T22:12:07.264Z,15.00
2018-02-22T22:14:35.513Z,16.25
2018-02-22T22:17:03.006Z,16.37
2018-02-22T22:19:31.270Z,14.77
2018-02-22T22:21:59.547Z,14.75
2018-02-22T22:24:27.805Z,14.65
2018-02-22T22:26:55.297Z,12.15
2018-02-22T22:29:23.549Z,12.50
2018-02-22T22:31:51.041Z,16.00
2018-02-22T22:34:18.520Z,12.73
2018-02-22T22:36:46.009Z,13.10
2018-02-22T22:39:13.489Z,13.25
2018-02-22T22:41:40.995Z,15.02
2018-02-22T22:44:08.540Z,15.05
2018-02-22T22:46:35.977Z,12.55
2018-02-22T22:49:04.232Z,12.65
2018-02-22T22:51:31.709Z,12.68
2018-02-22T22:53:59.964Z,14.98
2018-02-22T22:56:27.449Z,17.05
2018-02-22T22:58:55.701Z,15.65
2018-02-22T23:01:23.185Z,14.32
2018-02-22T23:03:51.445Z,14.73
2018-02-22T23:06:18.922Z,12.73
2018-02-22T23:08:47.177Z,15.25
2018-02-22T23:11:14.661Z,13.93
2018-02-22T23:13:42.909Z,15.18
2018-02-22T23:16:10.435Z,15.93
2018-02-22T23:18:37.913Z,15.82
2018-02-22T23:21:05.399Z,14.40
2018-02-22T23:23:32.892Z,15.73
2018-02-22T23:26:00.379Z,18.15
2018-02-22T23:28:27.873Z,14.32
2018-02-22T23:30:56.125Z,17.52
2018-02-22T23:33:23.600Z,15.18
2018-02-22T23:35:51.093Z,17.92
2018-02-22T23:38:18.573Z,13.25
2018-02-22T23:40:49.002Z,27.10
2018-02-22T23:43:16.495Z,19.10
2018-02-22T23:45:44.829Z,14.82
2018-02-22T23:48:12.312Z,12.60
2018-02-22T23:50:39.828Z,17.33
2018-02-22T23:53:07.310Z,18.87
2018-02-22T23:55:34.796Z,15.27
2018-02-22T23:58:02.277Z,15.35
